Dixon, Iowa
Current Conditions -  °F | °C
As of 4:52 PM on Monday 24 Nov 2014 (Local Time) from KDVN Reporting Station
Haze Haze  
Wind Chill: 10°   Ceiling: 2200
Heat Index: 25°   Visibility: 5mi
Dew Point: 20°   Wind: 24mph
Humidity: 81%   Direction: 270°W
Pressure: 29.7"   Gusts: 32mph
Location:  41.74°N, 90.78°W
Report Text: KDVN 242252Z AUTO 27021G28KT 5SM HZ OVC022 M04/M07 A2970 RMK AO2 PK WND 27030/2208 SNE2154B28E52 SLP065 P0000 T10391067
Loading
Personal Weather Stations






























Interactive Weather Map New forecast layout! Learn more

10-Day Weather Forecast

Advertisements
Track Severe Weather on mobile